Time;durP1;ratioP1;P1;durP2;ratioP2;P2;SDS_P1;SDS_P2;PMS_P1;PMS_P2;Temp;Humidity;BMP_temperature;BMP_pressure;BME280_temperature;BME280_humidity;BME280_pressure;Samples;Min_cycle;Max_cycle;Signal;HPM_P1;HPM_P2
2022/01/21 00:01:27;;;;;;;10.73;1.90;;;25.40;94.30;;;;;;5032126;28;20518;-67
2022/01/21 00:03:55;;;;;;;9.50;1.55;;;25.50;94.70;;;;;;5032181;28;20037;-66
2022/01/21 00:06:23;;;;;;;9.63;1.73;;;25.60;94.40;;;;;;5031892;28;20389;-67
2022/01/21 00:08:54;;;;;;;11.20;1.40;;;25.50;93.10;;;;;;5032137;28;20169;-66
2022/01/21 00:11:23;;;;;;;9.77;1.55;;;25.50;93.50;;;;;;5031759;28;20083;-67
2022/01/21 00:13:51;;;;;;;7.28;1.95;;;25.50;93.90;;;;;;5032078;28;20025;-67
2022/01/21 00:16:20;;;;;;;11.10;1.52;;;25.50;94.40;;;;;;5032001;28;20113;-66
2022/01/21 00:18:59;;;;;;;8.48;2.00;;;25.40;95.00;;;;;;5032114;28;20024;-66
2022/01/21 00:32:29;;;;;;;9.93;1.73;;;25.50;93.30;;;;;;5031823;28;20047;-66
2022/01/21 00:34:57;;;;;;;8.23;1.40;;;25.50;94.40;;;;;;5031302;28;20025;-68
2022/01/21 00:37:24;;;;;;;6.00;1.35;;;25.50;94.50;;;;;;5030946;28;20025;-67
2022/01/21 00:39:55;;;;;;;8.32;1.23;;;25.60;94.20;;;;;;5031072;28;20381;-68
2022/01/21 00:44:53;;;;;;;8.38;1.80;;;25.50;93.80;;;;;;5032074;28;20068;-67
2022/01/21 00:47:20;;;;;;;8.82;1.33;;;25.40;94.10;;;;;;5031211;28;20043;-66
2022/01/21 00:49:47;;;;;;;5.95;1.15;;;25.30;94.20;;;;;;5031826;28;20022;-67
2022/01/21 00:52:15;;;;;;;11.00;1.83;;;25.20;94.60;;;;;;5031353;28;20026;-67
2022/01/21 00:54:42;;;;;;;10.77;1.40;;;25.10;95.10;;;;;;5031028;28;20021;-71
2022/01/21 00:57:10;;;;;;;7.60;1.63;;;25.10;95.20;;;;;;5030807;28;20021;-65
2022/01/21 00:59:37;;;;;;;9.15;1.85;;;25.20;95.60;;;;;;5029716;28;20048;-66
2022/01/21 01:02:05;;;;;;;8.07;1.65;;;25.30;95.20;;;;;;5029715;28;20474;-67
2022/01/21 01:04:33;;;;;;;7.47;2.05;;;25.60;95.30;;;;;;5025277;28;20513;-66
2022/01/21 01:07:00;;;;;;;9.00;1.77;;;25.90;94.30;;;;;;5030083;28;20069;-69
2022/01/21 01:09:28;;;;;;;6.80;1.88;;;26.10;94.30;;;;;;5029542;28;20079;-67
2022/01/21 01:12:27;;;;;;;12.50;3.50;;;26.20;94.60;;;;;;5029387;28;20056;-66
2022/01/21 01:20:13;;;;;;;10.68;1.85;;;26.80;93.10;;;;;;5031173;28;20052;-66
2022/01/21 01:28:04;;;;;;;9.70;1.50;;;26.60;93.20;;;;;;5030400;28;20064;-67
2022/01/21 01:30:34;;;;;;;8.82;2.08;;;26.50;93.50;;;;;;5029251;28;20029;-67
2022/01/21 01:33:02;;;;;;;8.30;2.10;;;26.50;93.40;;;;;;5030798;28;20033;-66
2022/01/21 01:35:33;;;;;;;10.18;1.73;;;26.30;93.30;;;;;;5029886;28;20025;-67
2022/01/21 01:40:45;;;;;;;8.57;1.80;;;26.00;93.10;;;;;;5030838;28;20032;-65
2022/01/21 01:51:24;;;;;;;12.57;1.73;;;25.90;94.10;;;;;;5030681;28;20064;-67
2022/01/21 01:53:54;;;;;;;9.63;1.83;;;26.50;94.10;;;;;;5027586;28;20021;-67
2022/01/21 01:56:27;;;;;;;6.78;1.40;;;26.90;92.90;;;;;;5034738;28;20076;-66
2022/01/21 01:58:55;;;;;;;10.77;1.52;;;26.80;92.70;;;;;;5035504;28;20413;-66
2022/01/21 02:01:22;;;;;;;11.50;1.77;;;26.60;93.00;;;;;;5034761;28;20492;-67
2022/01/21 02:03:50;;;;;;;11.30;1.75;;;26.50;93.20;;;;;;5032961;28;20028;-66
2022/01/21 02:06:17;;;;;;;15.35;3.30;;;26.50;93.50;;;;;;5032964;28;20041;-66
2022/01/21 02:08:45;;;;;;;11.48;2.42;;;26.50;93.30;;;;;;5033139;28;20033;-67
2022/01/21 02:11:13;;;;;;;10.57;1.77;;;26.50;93.50;;;;;;5033191;28;20045;-70
2022/01/21 02:13:47;;;;;;;14.73;2.10;;;26.60;93.30;;;;;;5033203;28;20025;-72
2022/01/21 02:21:43;;;;;;;5.55;1.48;;;26.50;93.60;;;;;;5034693;28;20104;-66
2022/01/21 02:24:14;;;;;;;9.35;1.92;;;26.40;93.70;;;;;;5034662;28;20449;-67
2022/01/21 02:26:42;;;;;;;9.03;2.40;;;26.30;93.70;;;;;;5034594;28;20061;-66
2022/01/21 02:29:11;;;;;;;9.07;2.00;;;26.20;94.10;;;;;;5034609;28;20075;-65
2022/01/21 02:31:40;;;;;;;6.97;1.38;;;26.00;94.20;;;;;;5034380;28;20525;-69
2022/01/21 02:34:08;;;;;;;15.02;2.13;;;25.90;94.30;;;;;;5034369;28;20421;-70
2022/01/21 02:36:36;;;;;;;10.02;2.10;;;25.60;94.40;;;;;;5034094;28;20436;-65
2022/01/21 02:39:04;;;;;;;9.27;1.98;;;25.50;94.60;;;;;;5033703;28;20500;-67
2022/01/21 02:41:32;;;;;;;10.75;2.70;;;25.50;94.80;;;;;;5033786;28;20390;-70
2022/01/21 02:43:59;;;;;;;6.95;1.60;;;25.40;94.80;;;;;;5033096;28;20021;-66
2022/01/21 02:46:27;;;;;;;13.88;2.33;;;25.30;95.10;;;;;;5034252;28;20478;-66
2022/01/21 02:48:55;;;;;;;7.65;2.53;;;25.30;95.40;;;;;;5033967;28;20022;-69
2022/01/21 02:51:22;;;;;;;9.35;1.70;;;25.30;95.40;;;;;;5033886;28;20113;-66
2022/01/21 02:56:20;;;;;;;11.23;2.17;;;24.90;96.10;;;;;;5034109;28;20029;-70
2022/01/21 02:58:48;;;;;;;8.63;1.60;;;24.80;96.40;;;;;;5033877;28;20021;-70
2022/01/21 03:01:18;;;;;;;9.77;1.67;;;24.70;96.60;;;;;;5033847;28;20508;-69
2022/01/21 03:03:47;;;;;;;9.93;2.00;;;24.70;96.60;;;;;;5034080;28;20032;-67
2022/01/21 03:06:16;;;;;;;14.20;1.92;;;24.70;96.90;;;;;;5033562;28;20022;-67
2022/01/21 03:08:47;;;;;;;11.30;2.75;;;24.60;97.70;;;;;;5033649;28;20029;-67
2022/01/21 03:11:15;;;;;;;9.43;2.22;;;24.50;97.60;;;;;;5033537;28;20041;-67
2022/01/21 03:13:44;;;;;;;13.18;2.58;;;24.60;97.60;;;;;;5033717;28;20036;-68
2022/01/21 03:16:12;;;;;;;30.98;4.43;;;24.70;97.00;;;;;;5033378;28;20428;-66
2022/01/21 03:18:39;;;;;;;13.38;2.05;;;24.80;96.60;;;;;;5033507;28;20036;-66
2022/01/21 03:21:09;;;;;;;12.52;2.10;;;24.90;96.00;;;;;;5033310;28;20157;-66
2022/01/21 03:23:37;;;;;;;7.10;1.42;;;24.90;96.00;;;;;;5033701;28;20102;-66
2022/01/21 03:26:05;;;;;;;8.38;1.10;;;25.00;95.80;;;;;;5033501;28;20025;-69
2022/01/21 03:28:32;;;;;;;8.63;1.52;;;25.00;95.30;;;;;;5033494;28;20025;-68
2022/01/21 03:30:59;;;;;;;9.65;1.30;;;25.10;95.70;;;;;;5033369;28;20532;-67
2022/01/21 03:33:27;;;;;;;9.55;2.03;;;25.30;95.20;;;;;;5033415;28;20021;-67
2022/01/21 03:35:54;;;;;;;9.50;2.47;;;25.50;94.80;;;;;;5033485;28;20028;-70
2022/01/21 03:38:27;;;;;;;7.85;1.85;;;25.60;94.70;;;;;;5033344;28;20191;-67
2022/01/21 03:40:55;;;;;;;10.77;1.40;;;25.70;94.60;;;;;;5033095;28;20018;-69
2022/01/21 03:43:24;;;;;;;12.02;1.65;;;25.70;94.20;;;;;;5033022;28;20021;-67
2022/01/21 03:45:52;;;;;;;12.43;1.92;;;25.80;94.10;;;;;;5032898;28;20057;-67
2022/01/21 03:48:21;;;;;;;8.73;1.73;;;25.70;94.10;;;;;;5033141;28;20477;-67
2022/01/21 03:50:48;;;;;;;8.55;2.13;;;25.60;94.50;;;;;;5033000;28;20025;-68
2022/01/21 03:53:16;;;;;;;8.55;1.33;;;25.50;95.30;;;;;;5033219;28;20422;-68
2022/01/21 03:55:45;;;;;;;10.30;1.80;;;25.40;95.30;;;;;;5033238;28;20108;-66
2022/01/21 03:58:13;;;;;;;10.93;1.80;;;25.20;95.70;;;;;;5033032;28;20030;-67
2022/01/21 04:00:46;;;;;;;9.73;1.52;;;25.10;95.90;;;;;;5032770;28;20025;-67
2022/01/21 04:03:14;;;;;;;12.50;1.65;;;24.90;96.50;;;;;;5032664;28;20462;-68
2022/01/21 04:05:42;;;;;;;9.80;2.08;;;24.70;96.50;;;;;;5032720;28;20390;-70
2022/01/21 04:08:11;;;;;;;7.85;1.55;;;24.50;97.30;;;;;;5032647;28;20374;-67
2022/01/21 04:10:41;;;;;;;11.02;1.40;;;24.50;97.10;;;;;;5032227;28;20136;-67
2022/01/21 04:13:16;;;;;;;6.97;1.17;;;24.50;97.50;;;;;;5032600;28;20059;-66
2022/01/21 04:15:46;;;;;;;13.25;2.75;;;24.30;98.50;;;;;;5032638;28;20580;-66
2022/01/21 04:18:15;;;;;;;8.10;1.63;;;24.10;98.90;;;;;;5032161;28;20029;-66
2022/01/21 04:20:43;;;;;;;7.97;1.30;;;23.90;99.30;;;;;;5032165;28;20026;-67
2022/01/21 04:23:11;;;;;;;14.52;2.38;;;23.80;99.40;;;;;;5030990;28;20440;-67
2022/01/21 04:25:39;;;;;;;6.90;1.40;;;23.90;99.70;;;;;;5032416;28;20041;-66
2022/01/21 04:28:06;;;;;;;9.07;1.45;;;23.80;99.80;;;;;;5032262;28;20498;-66
2022/01/21 04:30:35;;;;;;;7.30;1.60;;;23.90;99.20;;;;;;5032176;28;20532;-66
2022/01/21 04:33:03;;;;;;;9.75;1.88;;;24.00;99.10;;;;;;5032328;28;20029;-66
2022/01/21 04:35:32;;;;;;;10.73;1.63;;;24.10;98.70;;;;;;5032240;28;20021;-67
2022/01/21 04:38:05;;;;;;;6.05;1.30;;;24.30;98.70;;;;;;5031998;28;20098;-66
2022/01/21 04:40:39;;;;;;;7.57;1.25;;;24.50;98.50;;;;;;5031816;28;20382;-65
2022/01/21 04:48:38;;;;;;;7.78;1.23;;;25.00;96.40;;;;;;5032212;28;20072;-65
2022/01/21 04:51:17;;;;;;;11.43;1.70;;;25.00;96.50;;;;;;5031779;28;20493;-66
2022/01/21 04:53:48;;;;;;;10.88;1.58;;;25.00;96.30;;;;;;5031925;28;20112;-66
2022/01/21 04:56:16;;;;;;;9.75;1.38;;;25.10;96.20;;;;;;5031002;28;20061;-66
2022/01/21 04:58:44;;;;;;;9.15;1.35;;;25.00;96.10;;;;;;5031684;28;20036;-67
2022/01/21 05:01:12;;;;;;;15.35;2.28;;;24.90;96.40;;;;;;5031670;28;20025;-66
2022/01/21 05:03:44;;;;;;;12.63;1.55;;;24.80;96.60;;;;;;5032020;28;20033;-67
2022/01/21 05:06:12;;;;;;;7.93;2.03;;;24.60;97.10;;;;;;5031958;28;20040;-66
2022/01/21 05:08:45;;;;;;;9.70;1.67;;;24.40;97.60;;;;;;5031697;28;20026;-67
2022/01/21 05:11:13;;;;;;;9.95;1.60;;;24.00;99.80;;;;;;5031615;28;20045;-67
2022/01/21 05:13:44;;;;;;;10.10;1.88;;;23.90;99.90;;;;;;5031400;28;20025;-68
2022/01/21 05:18:45;;;;;;;6.55;1.23;;;23.40;99.90;;;;;;5031846;28;20032;-66
2022/01/21 05:21:12;;;;;;;6.65;1.67;;;23.10;99.90;;;;;;5031428;28;20033;-70
2022/01/21 05:23:39;;;;;;;6.18;1.42;;;22.90;99.90;;;;;;5031634;28;20081;-70
2022/01/21 05:26:07;;;;;;;10.45;2.30;;;22.80;99.90;;;;;;5029924;28;20167;-70
2022/01/21 05:28:34;;;;;;;8.57;1.50;;;22.80;99.90;;;;;;5028508;28;20083;-66
2022/01/21 05:31:01;;;;;;;7.82;1.20;;;22.90;99.90;;;;;;5022955;28;20157;-65
2022/01/21 05:33:29;;;;;;;8.40;1.38;;;23.00;99.90;;;;;;5032956;28;20037;-70
2022/01/21 05:35:56;;;;;;;11.30;1.55;;;23.20;99.90;;;;;;5035475;28;20501;-67
2022/01/21 05:38:23;;;;;;;7.10;1.23;;;23.20;99.90;;;;;;5022091;28;20022;-68
2022/01/21 05:40:51;;;;;;;8.55;2.05;;;23.30;99.90;;;;;;5014605;28;20034;-67
2022/01/21 05:43:19;;;;;;;7.03;1.75;;;23.40;99.90;;;;;;5021395;28;20453;-67
2022/01/21 05:48:31;;;;;;;7.80;1.20;;;23.10;99.90;;;;;;5034322;28;20493;-66
2022/01/21 05:50:59;;;;;;;7.50;2.03;;;22.70;99.90;;;;;;5034617;28;20034;-67
2022/01/21 05:53:26;;;;;;;10.50;1.58;;;22.30;99.90;;;;;;5034613;28;20489;-66
2022/01/21 05:56:00;;;;;;;10.75;1.23;;;21.90;99.90;;;;;;5032231;28;20037;-65
2022/01/21 05:58:28;;;;;;;4.95;0.85;;;21.70;99.90;;;;;;5034147;28;20018;-68
2022/01/21 06:00:55;;;;;;;10.57;1.83;;;21.50;99.90;;;;;;5034027;28;20028;-65
2022/01/21 06:03:22;;;;;;;12.55;1.40;;;21.50;99.90;;;;;;5034001;28;20018;-67
2022/01/21 06:05:50;;;;;;;9.52;1.15;;;21.50;99.90;;;;;;5034392;28;20058;-71
2022/01/21 06:08:17;;;;;;;12.30;1.88;;;21.60;99.90;;;;;;5034454;28;20032;-66
2022/01/21 06:10:44;;;;;;;9.40;2.17;;;21.70;99.90;;;;;;5033898;28;20037;-67
2022/01/21 06:13:15;;;;;;;7.20;1.70;;;21.90;99.90;;;;;;5033610;28;20025;-66
2022/01/21 06:15:43;;;;;;;8.15;2.05;;;22.10;99.90;;;;;;5036042;28;20029;-68
2022/01/21 06:18:11;;;;;;;8.57;1.05;;;22.20;99.90;;;;;;5038318;28;20470;-66
2022/01/21 06:20:39;;;;;;;9.68;2.17;;;22.20;99.90;;;;;;5033236;28;20025;-65
2022/01/21 06:23:06;;;;;;;10.55;1.40;;;22.20;99.90;;;;;;5032644;28;20025;-70
2022/01/21 06:25:33;;;;;;;8.07;1.52;;;22.20;99.90;;;;;;5030543;28;20036;-67
2022/01/21 06:28:01;;;;;;;8.48;1.58;;;22.40;99.90;;;;;;5032769;28;20037;-67
2022/01/21 06:30:28;;;;;;;16.02;2.13;;;22.60;99.90;;;;;;5034956;28;20022;-67
2022/01/21 06:32:55;;;;;;;9.85;1.90;;;22.70;99.90;;;;;;5035514;28;20044;-66
2022/01/21 06:35:23;;;;;;;8.77;2.00;;;22.90;99.90;;;;;;5051645;28;20454;-65
2022/01/21 06:37:50;;;;;;;7.63;1.05;;;22.80;99.90;;;;;;5050891;28;20029;-65
2022/01/21 06:40:20;;;;;;;11.95;1.73;;;22.70;99.90;;;;;;5053210;28;20456;-65
2022/01/21 06:42:51;;;;;;;9.40;1.80;;;22.60;99.90;;;;;;5052227;28;20107;-65
2022/01/21 06:45:20;;;;;;;7.18;1.45;;;22.50;99.90;;;;;;5053272;28;20053;-64
2022/01/21 06:47:47;;;;;;;8.15;1.38;;;22.40;99.90;;;;;;5053941;28;20060;-66
2022/01/21 06:50:14;;;;;;;11.45;2.28;;;22.50;99.90;;;;;;5053577;28;20029;-67
2022/01/21 06:52:42;;;;;;;9.95;1.88;;;22.60;99.90;;;;;;5052232;28;20025;-67
2022/01/21 06:55:09;;;;;;;7.05;1.38;;;22.60;99.90;;;;;;5051967;28;20021;-67
2022/01/21 06:57:39;;;;;;;5.18;1.48;;;22.70;99.90;;;;;;5051582;28;20021;-66
2022/01/21 07:00:13;;;;;;;8.13;1.42;;;22.70;99.90;;;;;;5051745;28;20428;-65
2022/01/21 07:02:41;;;;;;;6.45;1.23;;;22.60;99.90;;;;;;5051430;28;20056;-67
2022/01/21 07:05:08;;;;;;;7.45;1.65;;;22.60;99.90;;;;;;5051797;28;20017;-68
2022/01/21 07:07:36;;;;;;;8.02;1.42;;;22.60;99.90;;;;;;5053422;28;20052;-65
2022/01/21 07:10:06;;;;;;;8.50;1.80;;;22.60;99.90;;;;;;5053708;28;20378;-64
2022/01/21 07:12:34;;;;;;;8.23;1.40;;;22.50;99.90;;;;;;5053257;28;20021;-65
2022/01/21 07:15:02;;;;;;;6.20;1.40;;;22.40;99.90;;;;;;5053330;28;20400;-67
2022/01/21 07:17:29;;;;;;;5.68;1.10;;;22.40;99.90;;;;;;5053005;28;20032;-66
2022/01/21 07:19:58;;;;;;;6.35;1.35;;;22.30;99.90;;;;;;5053334;28;20531;-67
2022/01/21 07:22:25;;;;;;;9.52;1.40;;;22.40;99.90;;;;;;5053222;28;20021;-66
2022/01/21 07:24:52;;;;;;;6.10;1.80;;;22.50;99.90;;;;;;5053627;28;20056;-66
2022/01/21 07:27:20;;;;;;;8.55;1.60;;;22.60;99.90;;;;;;5052194;28;20048;-66
2022/01/21 07:29:47;;;;;;;10.55;1.70;;;22.50;99.90;;;;;;5053174;28;20078;-64
2022/01/21 07:32:14;;;;;;;6.45;1.10;;;22.50;99.90;;;;;;5053111;28;20032;-66
2022/01/21 07:34:42;;;;;;;6.97;1.20;;;22.50;99.90;;;;;;5051701;28;20028;-65
2022/01/21 07:37:09;;;;;;;8.85;1.40;;;22.50;99.90;;;;;;5053080;28;20017;-65
2022/01/21 07:39:37;;;;;;;9.52;1.70;;;22.60;99.90;;;;;;5051408;28;20029;-65
2022/01/21 07:42:04;;;;;;;9.48;1.30;;;22.60;99.90;;;;;;5053234;28;20013;-64
2022/01/21 07:44:32;;;;;;;9.80;1.38;;;22.60;99.90;;;;;;5053914;28;20425;-65
2022/01/21 07:46:59;;;;;;;7.60;1.40;;;22.50;99.90;;;;;;5053548;28;20079;-66
2022/01/21 07:49:27;;;;;;;5.75;1.30;;;22.50;99.90;;;;;;5053214;28;20040;-66
2022/01/21 07:51:54;;;;;;;9.15;1.40;;;22.60;99.90;;;;;;5052150;28;20032;-65
2022/01/21 07:54:21;;;;;;;10.32;1.45;;;22.50;99.90;;;;;;5053055;28;20016;-66
2022/01/21 07:56:49;;;;;;;7.60;1.90;;;22.60;99.90;;;;;;5052969;28;20085;-65
2022/01/21 07:59:17;;;;;;;8.77;1.95;;;22.70;99.90;;;;;;5052862;28;20060;-65
2022/01/21 08:01:45;;;;;;;10.23;1.48;;;22.80;99.90;;;;;;5052701;28;20021;-67
2022/01/21 08:04:12;;;;;;;9.38;2.85;;;22.80;99.90;;;;;;5052770;28;20017;-70
2022/01/21 08:06:39;;;;;;;8.27;2.33;;;22.70;99.90;;;;;;5052733;28;20390;-68
2022/01/21 08:09:07;;;;;;;8.10;1.40;;;22.70;99.90;;;;;;5052696;28;20095;-65
2022/01/21 08:11:35;;;;;;;7.03;1.60;;;22.70;99.90;;;;;;5052515;28;20024;-65
2022/01/21 08:14:02;;;;;;;7.57;1.45;;;22.70;99.90;;;;;;5052490;28;20037;-66
2022/01/21 08:16:29;;;;;;;8.70;1.73;;;22.70;99.90;;;;;;5052304;28;20052;-66
2022/01/21 08:18:57;;;;;;;9.07;3.10;;;22.60;99.90;;;;;;5052596;28;20091;-66
2022/01/21 08:21:24;;;;;;;12.07;3.60;;;22.60;99.90;;;;;;5052442;28;20116;-66
2022/01/21 08:23:53;;;;;;;9.40;2.25;;;22.50;99.90;;;;;;5051467;28;20013;-65
2022/01/21 08:26:24;;;;;;;8.05;1.90;;;22.50;99.90;;;;;;5050522;28;20053;-67
2022/01/21 08:28:52;;;;;;;8.40;2.30;;;22.40;99.90;;;;;;5050433;28;20052;-66
2022/01/21 08:31:20;;;;;;;6.28;1.30;;;22.40;99.90;;;;;;5050857;28;20028;-67
2022/01/21 08:33:48;;;;;;;11.23;1.88;;;22.30;99.90;;;;;;5051241;28;20060;-65
2022/01/21 08:36:15;;;;;;;14.77;7.38;;;22.20;99.90;;;;;;5051294;28;20469;-69
2022/01/21 08:38:42;;;;;;;5.10;1.15;;;22.10;99.90;;;;;;5051944;28;20032;-67
2022/01/21 08:41:10;;;;;;;8.55;1.90;;;22.10;99.90;;;;;;5052770;28;20028;-69
2022/01/21 08:43:37;;;;;;;9.65;1.83;;;22.20;99.90;;;;;;5052502;28;20021;-65
2022/01/21 08:46:05;;;;;;;11.95;2.70;;;22.20;99.90;;;;;;5052280;28;20028;-66
2022/01/21 08:48:32;;;;;;;10.32;3.85;;;22.20;99.90;;;;;;5052366;28;20074;-67
2022/01/21 08:51:02;;;;;;;12.65;3.20;;;22.20;99.90;;;;;;5052049;28;20499;-65
2022/01/21 08:53:41;;;;;;;6.72;2.70;;;22.20;99.90;;;;;;5052131;28;20021;-66
2022/01/21 08:56:13;;;;;;;9.48;3.35;;;22.20;99.90;;;;;;5052340;28;20029;-64
2022/01/21 08:58:41;;;;;;;8.40;2.90;;;22.10;99.90;;;;;;5052363;28;20024;-65
2022/01/21 09:01:10;;;;;;;10.40;4.57;;;22.10;99.90;;;;;;5052003;28;20024;-65
2022/01/21 09:03:40;;;;;;;11.00;3.58;;;22.00;99.90;;;;;;5050535;28;20171;-63
2022/01/21 09:06:07;;;;;;;13.07;3.97;;;22.00;99.90;;;;;;5051808;28;20044;-64
2022/01/21 09:08:38;;;;;;;8.18;3.33;;;22.00;99.90;;;;;;5051797;28;20021;-65
2022/01/21 09:11:05;;;;;;;6.47;2.15;;;22.00;99.90;;;;;;5051438;28;20375;-65
2022/01/21 09:13:39;;;;;;;8.15;1.85;;;21.90;99.90;;;;;;5051711;28;20027;-65
2022/01/21 09:16:07;;;;;;;9.10;1.83;;;21.90;99.90;;;;;;5052022;28;20374;-66
2022/01/21 09:19:08;;;;;;;11.52;1.55;;;21.90;99.90;;;;;;5051889;28;20071;-67
2022/01/21 09:21:37;;;;;;;6.25;1.90;;;21.80;99.90;;;;;;5051760;28;20024;-65
2022/01/21 09:24:06;;;;;;;10.40;2.17;;;21.80;99.90;;;;;;5051887;28;20059;-67
2022/01/21 09:26:33;;;;;;;9.00;2.15;;;21.80;99.90;;;;;;5051880;28;20032;-68
2022/01/21 09:29:03;;;;;;;8.23;1.45;;;21.80;99.90;;;;;;5051829;28;20095;-65
2022/01/21 09:31:31;;;;;;;9.73;1.70;;;21.70;99.90;;;;;;5051625;28;20025;-66
2022/01/21 09:33:58;;;;;;;11.05;2.10;;;21.70;99.90;;;;;;5051720;28;20108;-66
2022/01/21 09:36:26;;;;;;;12.73;2.75;;;21.80;99.90;;;;;;5051502;28;20028;-69
2022/01/21 09:38:53;;;;;;;8.63;2.38;;;21.80;99.90;;;;;;5051298;28;20025;-68
2022/01/21 09:41:21;;;;;;;10.70;1.95;;;21.80;99.90;;;;;;5051245;28;20112;-66
2022/01/21 09:43:52;;;;;;;7.53;1.70;;;21.80;99.90;;;;;;5051780;28;20021;-66
2022/01/21 09:46:27;;;;;;;6.70;2.05;;;21.90;99.90;;;;;;5051571;28;20032;-71
2022/01/21 09:49:07;;;;;;;9.20;1.55;;;21.90;99.90;;;;;;5051234;28;20029;-65
2022/01/21 09:51:36;;;;;;;6.05;1.52;;;21.90;99.90;;;;;;5051390;28;20056;-65
2022/01/21 09:54:06;;;;;;;10.55;1.90;;;21.90;99.90;;;;;;5051853;28;20029;-68
2022/01/21 09:56:38;;;;;;;9.13;1.80;;;21.90;99.90;;;;;;5051414;28;20017;-67
2022/01/21 09:59:05;;;;;;;7.82;1.75;;;21.80;99.90;;;;;;5051589;28;20064;-66
2022/01/21 10:01:34;;;;;;;7.13;2.95;;;21.70;99.90;;;;;;5051597;28;20033;-68
2022/01/21 10:04:02;;;;;;;12.27;4.88;;;21.70;99.90;;;;;;5050804;28;20543;-70
2022/01/21 10:06:31;;;;;;;11.88;3.33;;;21.70;99.90;;;;;;5050099;28;20044;-69
2022/01/21 10:08:59;;;;;;;10.13;3.10;;;21.70;99.90;;;;;;5031358;28;20021;-69
2022/01/21 10:11:26;;;;;;;4.95;1.60;;;21.70;99.90;;;;;;5040263;28;20029;-68
2022/01/21 10:13:54;;;;;;;8.40;1.55;;;21.70;99.90;;;;;;5042639;28;20049;-70
2022/01/21 10:16:21;;;;;;;6.63;2.88;;;21.70;99.90;;;;;;5044162;28;20032;-69
2022/01/21 10:19:08;;;;;;;6.35;1.83;;;21.60;99.90;;;;;;5046838;28;20025;-72
2022/01/21 10:21:37;;;;;;;6.80;1.50;;;21.50;99.90;;;;;;5043253;28;20025;-70
2022/01/21 10:24:13;;;;;;;6.80;1.52;;;21.50;99.90;;;;;;5051125;28;20029;-71
2022/01/21 10:26:52;;;;;;;8.00;1.50;;;21.50;99.90;;;;;;5047855;28;20630;-70
2022/01/21 10:29:20;;;;;;;7.53;1.88;;;21.40;99.90;;;;;;5046000;28;20037;-74
2022/01/21 10:31:59;;;;;;;7.25;1.75;;;21.30;99.90;;;;;;5045414;28;20017;-73
2022/01/21 10:34:27;;;;;;;10.50;1.80;;;21.20;99.90;;;;;;5042477;28;20034;-74
2022/01/21 10:37:04;;;;;;;6.88;2.10;;;21.10;99.90;;;;;;5045415;28;20482;-72
2022/01/21 10:39:34;;;;;;;5.65;1.40;;;21.10;99.90;;;;;;5035974;28;20029;-73
2022/01/21 10:42:02;;;;;;;9.63;3.00;;;21.00;99.90;;;;;;5036883;28;20104;-75
2022/01/21 10:44:30;;;;;;;13.32;2.75;;;21.00;99.90;;;;;;5041192;28;20017;-72
2022/01/21 10:47:08;;;;;;;7.28;2.20;;;20.90;99.90;;;;;;5039300;28;20036;-73
2022/01/21 10:49:43;;;;;;;12.48;3.53;;;20.90;99.90;;;;;;5035361;28;20013;-72
2022/01/21 10:52:15;;;;;;;9.43;2.33;;;20.80;99.90;;;;;;5042139;28;20036;-73
2022/01/21 10:54:51;;;;;;;5.07;1.80;;;20.80;99.90;;;;;;5035173;28;20060;-69
2022/01/21 10:57:22;;;;;;;10.70;2.22;;;20.70;99.90;;;;;;5047795;28;20033;-72
2022/01/21 10:59:54;;;;;;;7.18;2.30;;;20.70;99.90;;;;;;5046691;28;20108;-69
2022/01/21 11:02:40;;;;;;;9.38;2.80;;;20.60;99.90;;;;;;5049474;28;20029;-67
2022/01/21 11:05:17;;;;;;;14.18;4.45;;;20.60;99.90;;;;;;5044698;28;20033;-67
2022/01/21 11:07:57;;;;;;;12.35;4.13;;;20.60;99.90;;;;;;5045964;28;20051;-68
2022/01/21 11:10:34;;;;;;;12.45;3.13;;;20.50;99.90;;;;;;5038740;28;20099;-71
2022/01/21 11:13:03;;;;;;;6.70;1.80;;;20.40;99.90;;;;;;5040776;28;20104;-70
2022/01/21 11:15:48;;;;;;;8.90;2.40;;;20.30;99.90;;;;;;5035011;28;20478;-70
2022/01/21 11:18:19;;;;;;;9.70;2.55;;;20.20;99.90;;;;;;5041163;28;20022;-70
2022/01/21 11:21:17;;;;;;;14.00;2.75;;;20.20;99.90;;;;;;5046650;28;20036;-71
2022/01/21 11:23:44;;;;;;;10.63;2.00;;;20.20;99.90;;;;;;5040780;28;20017;-73
2022/01/21 11:26:16;;;;;;;12.65;1.88;;;20.20;99.90;;;;;;5037966;28;20112;-68
2022/01/21 11:28:49;;;;;;;10.05;2.58;;;20.20;99.90;;;;;;5048171;28;20078;-70
2022/01/21 11:31:21;;;;;;;6.18;1.90;;;20.20;99.90;;;;;;5041985;28;20029;-69
2022/01/21 11:33:49;;;;;;;9.57;2.13;;;20.20;99.90;;;;;;5040219;28;20021;-69
2022/01/21 11:36:18;;;;;;;7.43;2.15;;;20.20;99.90;;;;;;5036979;28;20108;-71
2022/01/21 11:38:48;;;;;;;11.20;2.15;;;20.20;99.90;;;;;;5044274;28;20021;-70
2022/01/21 11:41:16;;;;;;;7.25;1.70;;;20.20;99.90;;;;;;5043597;28;20053;-70
2022/01/21 11:43:55;;;;;;;12.13;2.00;;;20.20;99.90;;;;;;5040274;28;20033;-72
2022/01/21 11:46:39;;;;;;;7.95;2.58;;;20.10;99.90;;;;;;5034606;28;20049;-70
2022/01/21 11:52:28;;;;;;;6.93;1.95;;;20.20;99.90;;;;;;5032839;28;20031;-70
2022/01/21 11:54:56;;;;;;;6.15;2.08;;;20.20;99.90;;;;;;5047135;28;20481;-67
2022/01/21 11:57:31;;;;;;;7.82;1.92;;;20.30;99.90;;;;;;5034030;28;20464;-71
2022/01/21 12:02:29;;;;;;;7.78;1.65;;;20.30;99.90;;;;;;5034706;28;20466;-71
2022/01/21 12:05:02;;;;;;;8.98;2.40;;;20.40;99.90;;;;;;5053193;28;20075;-72
2022/01/21 12:07:44;;;;;;;12.05;2.63;;;20.40;99.90;;;;;;5039227;28;20041;-72
2022/01/21 12:10:15;;;;;;;9.50;2.13;;;20.50;99.90;;;;;;5032086;28;20061;-70
2022/01/21 12:12:58;;;;;;;9.67;2.13;;;20.40;99.90;;;;;;5031475;28;20091;-72
2022/01/21 12:20:51;;;;;;;11.02;2.38;;;20.40;99.90;;;;;;5019702;28;20033;-71
2022/01/21 12:23:21;;;;;;;7.40;2.17;;;20.50;99.90;;;;;;5039731;28;20032;-73
2022/01/21 12:26:17;;;;;;;10.15;2.85;;;20.50;99.90;;;;;;5040115;28;20108;-72
2022/01/21 12:28:49;;;;;;;9.43;2.13;;;20.50;99.90;;;;;;5032770;28;20041;-70
2022/01/21 12:31:17;;;;;;;4.38;1.48;;;20.60;99.90;;;;;;5031493;28;20024;-71
2022/01/21 12:33:56;;;;;;;10.07;1.83;;;20.60;99.90;;;;;;5029419;28;20026;-71
2022/01/21 12:36:46;;;;;;;7.28;1.90;;;20.60;99.90;;;;;;5023766;28;20028;-70
2022/01/21 12:39:39;;;;;;;10.40;2.35;;;20.60;99.90;;;;;;5027740;28;20033;-71
2022/01/21 12:42:35;;;;;;;6.65;1.30;;;20.50;99.90;;;;;;5022126;28;20504;-71
2022/01/21 12:45:08;;;;;;;8.02;1.63;;;20.50;99.90;;;;;;5027592;28;20021;-71
2022/01/21 12:47:48;;;;;;;10.55;1.27;;;20.60;99.90;;;;;;5030976;28;20038;-71
2022/01/21 12:50:35;;;;;;;7.78;1.45;;;20.60;99.90;;;;;;5027753;28;20039;-72
2022/01/21 12:53:17;;;;;;;9.68;1.80;;;20.60;99.90;;;;;;5021403;28;20402;-71
2022/01/21 12:55:58;;;;;;;7.38;1.73;;;20.60;99.90;;;;;;5029403;28;20026;-67
2022/01/21 12:58:42;;;;;;;12.00;2.10;;;20.50;99.90;;;;;;5023636;28;20414;-71
2022/01/21 13:01:12;;;;;;;13.02;2.85;;;20.60;99.90;;;;;;5024545;28;20486;-71
2022/01/21 13:03:49;;;;;;;7.82;1.67;;;20.60;99.90;;;;;;5025281;28;20022;-71
2022/01/21 13:06:36;;;;;;;6.28;1.00;;;20.50;99.90;;;;;;5022903;28;20105;-70
2022/01/21 13:09:09;;;;;;;6.18;1.65;;;20.60;99.90;;;;;;5022561;28;20026;-70
2022/01/21 13:11:43;;;;;;;10.48;1.63;;;20.60;99.90;;;;;;5028759;28;20171;-71
2022/01/21 13:17:05;;;;;;;11.73;1.75;;;20.60;99.90;;;;;;5025935;28;20083;-71
2022/01/21 13:19:56;;;;;;;7.07;1.80;;;20.50;99.90;;;;;;5022052;28;20029;-72
2022/01/21 13:22:32;;;;;;;7.07;1.10;;;20.50;99.90;;;;;;5027548;28;20025;-71
2022/01/21 13:25:16;;;;;;;10.13;1.90;;;20.50;99.90;;;;;;5022967;28;20032;-70
2022/01/21 13:27:58;;;;;;;8.95;1.60;;;20.50;99.90;;;;;;5029049;28;20030;-69
2022/01/21 13:30:29;;;;;;;6.43;1.77;;;20.60;99.90;;;;;;5045712;28;20103;-70
2022/01/21 13:33:11;;;;;;;8.85;1.85;;;20.60;99.90;;;;;;5050011;28;20117;-70
2022/01/21 13:35:44;;;;;;;9.27;1.50;;;20.60;99.90;;;;;;5031860;28;20022;-70
2022/01/21 13:38:14;;;;;;;8.50;1.15;;;20.60;99.90;;;;;;5030953;28;20133;-70
2022/01/21 13:40:53;;;;;;;8.10;1.30;;;20.60;99.90;;;;;;5031386;28;20563;-69
2022/01/21 13:43:24;;;;;;;9.73;1.85;;;20.50;99.90;;;;;;5033644;28;20520;-70
2022/01/21 13:46:00;;;;;;;9.30;1.85;;;20.50;99.90;;;;;;5038905;28;20113;-71
2022/01/21 13:48:29;;;;;;;8.55;2.30;;;20.60;99.90;;;;;;5051552;28;20033;-71
2022/01/21 13:50:58;;;;;;;10.57;1.63;;;20.50;99.90;;;;;;5053261;28;20021;-71
2022/01/21 13:53:27;;;;;;;8.15;2.17;;;20.50;99.90;;;;;;5055301;28;20016;-69
2022/01/21 13:55:58;;;;;;;12.00;2.30;;;20.50;99.90;;;;;;5055710;28;20020;-70
2022/01/21 13:58:33;;;;;;;10.52;1.80;;;20.50;99.90;;;;;;5055259;28;20025;-70
2022/01/21 14:01:05;;;;;;;6.85;1.63;;;20.40;99.90;;;;;;5054671;28;20075;-70
2022/01/21 14:03:41;;;;;;;8.15;1.98;;;20.40;99.90;;;;;;5054011;28;20095;-70
2022/01/21 14:06:11;;;;;;;10.90;2.33;;;20.30;99.90;;;;;;5053551;28;20137;-71
2022/01/21 14:08:45;;;;;;;8.43;1.75;;;20.20;99.90;;;;;;5053510;28;20029;-71